sensor_id;sensor_type;location;lat;lon;timestamp;P1;durP1;ratioP1;P2;durP2;ratioP2
42000;SDS011;27689;48.390;10.856;2022-07-29T00:01:28;5.03;;;3.00;;
42000;SDS011;27689;48.390;10.856;2022-07-29T00:04:12;4.40;;;3.20;;
42000;SDS011;27689;48.390;10.856;2022-07-29T00:06:56;3.92;;;2.90;;
42000;SDS011;27689;48.390;10.856;2022-07-29T00:09:40;6.47;;;3.00;;
42000;SDS011;27689;48.390;10.856;2022-07-29T00:12:24;3.33;;;2.63;;
42000;SDS011;27689;48.390;10.856;2022-07-29T00:15:09;3.08;;;2.50;;
42000;SDS011;27689;48.390;10.856;2022-07-29T00:17:53;4.32;;;2.75;;
42000;SDS011;27689;48.390;10.856;2022-07-29T00:20:37;2.47;;;2.07;;
42000;SDS011;27689;48.390;10.856;2022-07-29T00:23:21;5.53;;;2.65;;
42000;SDS011;27689;48.390;10.856;2022-07-29T00:26:05;3.22;;;2.60;;
42000;SDS011;27689;48.390;10.856;2022-07-29T00:28:49;3.47;;;2.50;;
42000;SDS011;27689;48.390;10.856;2022-07-29T00:31:33;4.15;;;2.80;;
42000;SDS011;27689;48.390;10.856;2022-07-29T00:34:17;4.68;;;2.92;;
42000;SDS011;27689;48.390;10.856;2022-07-29T00:37:20;4.75;;;3.40;;
42000;SDS011;27689;48.390;10.856;2022-07-29T00:40:05;6.47;;;4.05;;
42000;SDS011;27689;48.390;10.856;2022-07-29T00:42:49;6.07;;;3.83;;
42000;SDS011;27689;48.390;10.856;2022-07-29T00:45:35;4.05;;;3.00;;
42000;SDS011;27689;48.390;10.856;2022-07-29T00:48:19;4.67;;;3.17;;
42000;SDS011;27689;48.390;10.856;2022-07-29T00:51:03;3.30;;;2.78;;
42000;SDS011;27689;48.390;10.856;2022-07-29T00:53:48;4.75;;;3.60;;
42000;SDS011;27689;48.390;10.856;2022-07-29T00:56:34;3.33;;;2.83;;
42000;SDS011;27689;48.390;10.856;2022-07-29T00:59:18;5.65;;;3.80;;
42000;SDS011;27689;48.390;10.856;2022-07-29T01:02:02;5.22;;;3.03;;
42000;SDS011;27689;48.390;10.856;2022-07-29T01:04:47;3.88;;;3.38;;
42000;SDS011;27689;48.390;10.856;2022-07-29T01:07:32;3.92;;;2.95;;
42000;SDS011;27689;48.390;10.856;2022-07-29T01:10:18;3.72;;;2.97;;
42000;SDS011;27689;48.390;10.856;2022-07-29T01:13:04;3.40;;;3.08;;
42000;SDS011;27689;48.390;10.856;2022-07-29T01:15:51;3.42;;;2.75;;
42000;SDS011;27689;48.390;10.856;2022-07-29T01:18:42;4.03;;;3.30;;
42000;SDS011;27689;48.390;10.856;2022-07-29T01:21:42;3.15;;;2.75;;
42000;SDS011;27689;48.390;10.856;2022-07-29T01:24:39;4.78;;;3.30;;
42000;SDS011;27689;48.390;10.856;2022-07-29T01:30:43;3.55;;;2.95;;
42000;SDS011;27689;48.390;10.856;2022-07-29T01:33:28;3.25;;;2.95;;
42000;SDS011;27689;48.390;10.856;2022-07-29T01:36:55;3.92;;;3.53;;
42000;SDS011;27689;48.390;10.856;2022-07-29T01:39:47;3.83;;;3.30;;
42000;SDS011;27689;48.390;10.856;2022-07-29T01:42:44;5.13;;;3.80;;
42000;SDS011;27689;48.390;10.856;2022-07-29T01:45:53;5.60;;;3.92;;
42000;SDS011;27689;48.390;10.856;2022-07-29T01:51:41;4.20;;;3.67;;
42000;SDS011;27689;48.390;10.856;2022-07-29T01:54:34;5.07;;;3.85;;
42000;SDS011;27689;48.390;10.856;2022-07-29T01:57:25;4.15;;;3.38;;
42000;SDS011;27689;48.390;10.856;2022-07-29T02:00:13;4.97;;;3.67;;
42000;SDS011;27689;48.390;10.856;2022-07-29T02:02:59;4.30;;;3.70;;
42000;SDS011;27689;48.390;10.856;2022-07-29T02:05:47;4.60;;;4.18;;
42000;SDS011;27689;48.390;10.856;2022-07-29T02:08:33;5.78;;;4.40;;
42000;SDS011;27689;48.390;10.856;2022-07-29T02:11:19;6.38;;;4.07;;
42000;SDS011;27689;48.390;10.856;2022-07-29T02:14:04;4.20;;;3.80;;
42000;SDS011;27689;48.390;10.856;2022-07-29T02:16:50;6.10;;;5.45;;
42000;SDS011;27689;48.390;10.856;2022-07-29T02:19:37;6.38;;;5.53;;
42000;SDS011;27689;48.390;10.856;2022-07-29T02:22:24;8.57;;;5.55;;
42000;SDS011;27689;48.390;10.856;2022-07-29T02:25:12;6.55;;;5.55;;
42000;SDS011;27689;48.390;10.856;2022-07-29T02:27:57;5.50;;;4.72;;
42000;SDS011;27689;48.390;10.856;2022-07-29T02:30:44;5.15;;;4.65;;
42000;SDS011;27689;48.390;10.856;2022-07-29T02:33:30;4.28;;;3.88;;
42000;SDS011;27689;48.390;10.856;2022-07-29T02:36:15;5.97;;;4.10;;
42000;SDS011;27689;48.390;10.856;2022-07-29T02:39:00;5.28;;;4.63;;
42000;SDS011;27689;48.390;10.856;2022-07-29T02:41:52;6.15;;;5.50;;
42000;SDS011;27689;48.390;10.856;2022-07-29T02:44:42;6.72;;;5.07;;
42000;SDS011;27689;48.390;10.856;2022-07-29T02:47:41;4.70;;;4.22;;
42000;SDS011;27689;48.390;10.856;2022-07-29T02:50:32;5.90;;;3.70;;
42000;SDS011;27689;48.390;10.856;2022-07-29T02:53:22;6.03;;;3.80;;
42000;SDS011;27689;48.390;10.856;2022-07-29T02:56:10;4.72;;;3.80;;
42000;SDS011;27689;48.390;10.856;2022-07-29T02:58:57;4.97;;;3.92;;
42000;SDS011;27689;48.390;10.856;2022-07-29T03:01:44;4.32;;;3.83;;
42000;SDS011;27689;48.390;10.856;2022-07-29T03:04:29;4.50;;;4.10;;
42000;SDS011;27689;48.390;10.856;2022-07-29T03:07:15;5.70;;;4.05;;
42000;SDS011;27689;48.390;10.856;2022-07-29T03:10:02;4.43;;;4.03;;
42000;SDS011;27689;48.390;10.856;2022-07-29T03:12:47;5.35;;;4.25;;
42000;SDS011;27689;48.390;10.856;2022-07-29T03:15:32;4.93;;;4.32;;
42000;SDS011;27689;48.390;10.856;2022-07-29T03:18:16;5.37;;;4.87;;
42000;SDS011;27689;48.390;10.856;2022-07-29T03:21:01;4.80;;;3.97;;
42000;SDS011;27689;48.390;10.856;2022-07-29T03:23:45;4.32;;;3.75;;
42000;SDS011;27689;48.390;10.856;2022-07-29T03:26:29;4.20;;;3.58;;
42000;SDS011;27689;48.390;10.856;2022-07-29T03:29:13;5.53;;;3.78;;
42000;SDS011;27689;48.390;10.856;2022-07-29T03:31:57;3.90;;;3.60;;
42000;SDS011;27689;48.390;10.856;2022-07-29T03:34:41;5.40;;;4.07;;
42000;SDS011;27689;48.390;10.856;2022-07-29T03:37:25;6.15;;;4.22;;
42000;SDS011;27689;48.390;10.856;2022-07-29T03:40:09;6.22;;;4.38;;
42000;SDS011;27689;48.390;10.856;2022-07-29T03:42:56;3.60;;;3.25;;
42000;SDS011;27689;48.390;10.856;2022-07-29T03:45:43;4.65;;;3.38;;
42000;SDS011;27689;48.390;10.856;2022-07-29T03:48:29;5.68;;;3.72;;
42000;SDS011;27689;48.390;10.856;2022-07-29T03:51:16;3.65;;;3.22;;
42000;SDS011;27689;48.390;10.856;2022-07-29T03:54:01;4.60;;;3.60;;
42000;SDS011;27689;48.390;10.856;2022-07-29T03:56:46;4.13;;;3.30;;
42000;SDS011;27689;48.390;10.856;2022-07-29T03:59:32;5.65;;;3.00;;
42000;SDS011;27689;48.390;10.856;2022-07-29T04:05:01;6.60;;;4.45;;
42000;SDS011;27689;48.390;10.856;2022-07-29T04:07:45;5.25;;;3.55;;
42000;SDS011;27689;48.390;10.856;2022-07-29T04:10:31;4.22;;;3.50;;
42000;SDS011;27689;48.390;10.856;2022-07-29T04:13:15;5.88;;;3.78;;
42000;SDS011;27689;48.390;10.856;2022-07-29T04:15:59;7.30;;;3.97;;
42000;SDS011;27689;48.390;10.856;2022-07-29T04:18:44;5.97;;;4.35;;
42000;SDS011;27689;48.390;10.856;2022-07-29T04:21:27;5.43;;;4.05;;
42000;SDS011;27689;48.390;10.856;2022-07-29T04:24:12;4.30;;;3.72;;
42000;SDS011;27689;48.390;10.856;2022-07-29T04:26:56;4.72;;;3.72;;
42000;SDS011;27689;48.390;10.856;2022-07-29T04:29:40;4.13;;;3.53;;
42000;SDS011;27689;48.390;10.856;2022-07-29T04:32:24;4.32;;;3.65;;
42000;SDS011;27689;48.390;10.856;2022-07-29T04:35:08;4.40;;;3.15;;
42000;SDS011;27689;48.390;10.856;2022-07-29T04:37:52;5.25;;;4.05;;
42000;SDS011;27689;48.390;10.856;2022-07-29T04:40:36;6.65;;;4.78;;
42000;SDS011;27689;48.390;10.856;2022-07-29T04:43:20;6.72;;;4.00;;
42000;SDS011;27689;48.390;10.856;2022-07-29T04:46:05;5.50;;;4.00;;
42000;SDS011;27689;48.390;10.856;2022-07-29T04:51:34;5.82;;;4.25;;
42000;SDS011;27689;48.390;10.856;2022-07-29T04:54:18;6.60;;;4.47;;
42000;SDS011;27689;48.390;10.856;2022-07-29T04:57:02;4.60;;;3.83;;
42000;SDS011;27689;48.390;10.856;2022-07-29T04:59:46;4.30;;;3.90;;
42000;SDS011;27689;48.390;10.856;2022-07-29T05:02:30;7.80;;;5.03;;
42000;SDS011;27689;48.390;10.856;2022-07-29T05:05:14;5.63;;;4.65;;
42000;SDS011;27689;48.390;10.856;2022-07-29T05:07:58;7.13;;;6.10;;
42000;SDS011;27689;48.390;10.856;2022-07-29T05:10:42;8.38;;;5.75;;
42000;SDS011;27689;48.390;10.856;2022-07-29T05:13:26;8.23;;;6.15;;
42000;SDS011;27689;48.390;10.856;2022-07-29T05:16:10;7.53;;;5.13;;
42000;SDS011;27689;48.390;10.856;2022-07-29T05:18:54;6.35;;;5.50;;
42000;SDS011;27689;48.390;10.856;2022-07-29T05:21:38;6.05;;;4.50;;
42000;SDS011;27689;48.390;10.856;2022-07-29T05:24:22;6.47;;;5.80;;
42000;SDS011;27689;48.390;10.856;2022-07-29T05:27:06;7.80;;;7.00;;
42000;SDS011;27689;48.390;10.856;2022-07-29T05:29:50;7.45;;;6.68;;
42000;SDS011;27689;48.390;10.856;2022-07-29T05:32:34;8.13;;;6.57;;
42000;SDS011;27689;48.390;10.856;2022-07-29T05:35:17;6.90;;;5.60;;
42000;SDS011;27689;48.390;10.856;2022-07-29T05:38:01;8.95;;;6.93;;
42000;SDS011;27689;48.390;10.856;2022-07-29T05:40:45;7.90;;;6.22;;
42000;SDS011;27689;48.390;10.856;2022-07-29T05:43:30;9.13;;;6.60;;
42000;SDS011;27689;48.390;10.856;2022-07-29T05:46:14;7.35;;;5.80;;
42000;SDS011;27689;48.390;10.856;2022-07-29T05:48:58;6.65;;;4.90;;
42000;SDS011;27689;48.390;10.856;2022-07-29T05:51:42;9.18;;;4.80;;
42000;SDS011;27689;48.390;10.856;2022-07-29T05:54:27;8.32;;;5.00;;
42000;SDS011;27689;48.390;10.856;2022-07-29T05:57:15;5.90;;;4.70;;
42000;SDS011;27689;48.390;10.856;2022-07-29T06:00:03;6.00;;;5.00;;
42000;SDS011;27689;48.390;10.856;2022-07-29T06:02:47;7.20;;;5.95;;
42000;SDS011;27689;48.390;10.856;2022-07-29T06:05:31;5.43;;;4.93;;
42000;SDS011;27689;48.390;10.856;2022-07-29T06:08:15;5.60;;;4.88;;
42000;SDS011;27689;48.390;10.856;2022-07-29T06:10:59;5.45;;;4.95;;
42000;SDS011;27689;48.390;10.856;2022-07-29T06:13:44;5.88;;;4.75;;
42000;SDS011;27689;48.390;10.856;2022-07-29T06:16:28;8.82;;;6.45;;
42000;SDS011;27689;48.390;10.856;2022-07-29T06:19:12;7.20;;;6.53;;
42000;SDS011;27689;48.390;10.856;2022-07-29T06:21:56;9.87;;;7.57;;
42000;SDS011;27689;48.390;10.856;2022-07-29T06:24:40;9.07;;;6.43;;
42000;SDS011;27689;48.390;10.856;2022-07-29T06:27:27;8.02;;;6.07;;
42000;SDS011;27689;48.390;10.856;2022-07-29T06:30:11;8.45;;;6.88;;
42000;SDS011;27689;48.390;10.856;2022-07-29T06:32:56;10.52;;;7.15;;
42000;SDS011;27689;48.390;10.856;2022-07-29T06:35:40;10.07;;;6.88;;
42000;SDS011;27689;48.390;10.856;2022-07-29T06:38:25;6.40;;;5.80;;
42000;SDS011;27689;48.390;10.856;2022-07-29T06:41:09;7.95;;;5.03;;
42000;SDS011;27689;48.390;10.856;2022-07-29T06:43:55;7.18;;;5.97;;
42000;SDS011;27689;48.390;10.856;2022-07-29T06:46:39;7.32;;;5.78;;
42000;SDS011;27689;48.390;10.856;2022-07-29T06:49:23;7.85;;;6.35;;
42000;SDS011;27689;48.390;10.856;2022-07-29T06:52:08;11.25;;;6.18;;
42000;SDS011;27689;48.390;10.856;2022-07-29T06:54:52;7.97;;;5.82;;
42000;SDS011;27689;48.390;10.856;2022-07-29T06:57:36;6.82;;;5.00;;
42000;SDS011;27689;48.390;10.856;2022-07-29T07:00:20;7.47;;;5.63;;
42000;SDS011;27689;48.390;10.856;2022-07-29T07:03:04;5.55;;;4.40;;
42000;SDS011;27689;48.390;10.856;2022-07-29T07:05:48;5.03;;;4.50;;
42000;SDS011;27689;48.390;10.856;2022-07-29T07:08:32;12.38;;;5.10;;
42000;SDS011;27689;48.390;10.856;2022-07-29T07:11:16;5.45;;;4.40;;
42000;SDS011;27689;48.390;10.856;2022-07-29T07:14:00;7.45;;;5.50;;
42000;SDS011;27689;48.390;10.856;2022-07-29T07:16:44;6.25;;;4.03;;
42000;SDS011;27689;48.390;10.856;2022-07-29T07:19:28;6.90;;;4.22;;
42000;SDS011;27689;48.390;10.856;2022-07-29T07:22:12;4.13;;;3.67;;
42000;SDS011;27689;48.390;10.856;2022-07-29T07:24:56;4.97;;;3.10;;
42000;SDS011;27689;48.390;10.856;2022-07-29T07:27:40;3.92;;;3.20;;
42000;SDS011;27689;48.390;10.856;2022-07-29T07:30:24;5.75;;;3.33;;
42000;SDS011;27689;48.390;10.856;2022-07-29T07:33:08;5.13;;;4.10;;
42000;SDS011;27689;48.390;10.856;2022-07-29T07:35:52;4.53;;;3.97;;
42000;SDS011;27689;48.390;10.856;2022-07-29T07:38:36;5.40;;;3.53;;
42000;SDS011;27689;48.390;10.856;2022-07-29T07:41:20;4.95;;;2.90;;
42000;SDS011;27689;48.390;10.856;2022-07-29T07:44:05;4.15;;;3.10;;
42000;SDS011;27689;48.390;10.856;2022-07-29T07:46:49;5.45;;;3.67;;
42000;SDS011;27689;48.390;10.856;2022-07-29T07:49:33;6.13;;;3.17;;
42000;SDS011;27689;48.390;10.856;2022-07-29T07:52:18;4.93;;;2.80;;
42000;SDS011;27689;48.390;10.856;2022-07-29T07:55:04;3.67;;;2.83;;
42000;SDS011;27689;48.390;10.856;2022-07-29T07:57:49;5.60;;;2.72;;
42000;SDS011;27689;48.390;10.856;2022-07-29T08:00:33;2.53;;;2.33;;
42000;SDS011;27689;48.390;10.856;2022-07-29T08:03:17;4.88;;;3.05;;
42000;SDS011;27689;48.390;10.856;2022-07-29T08:06:02;5.13;;;3.03;;
42000;SDS011;27689;48.390;10.856;2022-07-29T08:08:46;2.63;;;2.30;;
42000;SDS011;27689;48.390;10.856;2022-07-29T08:11:30;4.63;;;2.60;;
42000;SDS011;27689;48.390;10.856;2022-07-29T08:14:15;2.95;;;2.35;;
42000;SDS011;27689;48.390;10.856;2022-07-29T08:16:59;3.38;;;2.30;;
42000;SDS011;27689;48.390;10.856;2022-07-29T08:19:43;4.82;;;2.65;;
42000;SDS011;27689;48.390;10.856;2022-07-29T08:22:27;4.53;;;3.15;;
42000;SDS011;27689;48.390;10.856;2022-07-29T08:25:11;4.30;;;2.75;;
42000;SDS011;27689;48.390;10.856;2022-07-29T08:27:55;4.82;;;3.17;;
42000;SDS011;27689;48.390;10.856;2022-07-29T08:30:39;3.97;;;2.80;;
42000;SDS011;27689;48.390;10.856;2022-07-29T08:33:23;4.38;;;2.78;;
42000;SDS011;27689;48.390;10.856;2022-07-29T08:36:07;3.72;;;2.95;;
42000;SDS011;27689;48.390;10.856;2022-07-29T08:38:52;4.70;;;3.13;;
42000;SDS011;27689;48.390;10.856;2022-07-29T08:41:36;4.43;;;4.00;;
42000;SDS011;27689;48.390;10.856;2022-07-29T08:44:20;5.47;;;3.57;;
42000;SDS011;27689;48.390;10.856;2022-07-29T08:47:05;5.30;;;3.75;;
42000;SDS011;27689;48.390;10.856;2022-07-29T08:49:49;5.15;;;3.60;;
42000;SDS011;27689;48.390;10.856;2022-07-29T08:52:35;4.40;;;4.00;;
42000;SDS011;27689;48.390;10.856;2022-07-29T08:55:20;6.35;;;4.03;;
42000;SDS011;27689;48.390;10.856;2022-07-29T08:58:04;4.45;;;3.55;;
42000;SDS011;27689;48.390;10.856;2022-07-29T09:00:50;5.10;;;3.30;;
42000;SDS011;27689;48.390;10.856;2022-07-29T09:03:36;3.92;;;3.10;;
42000;SDS011;27689;48.390;10.856;2022-07-29T09:06:22;4.93;;;3.15;;
42000;SDS011;27689;48.390;10.856;2022-07-29T09:09:11;4.18;;;3.40;;
42000;SDS011;27689;48.390;10.856;2022-07-29T09:11:57;3.10;;;2.80;;
42000;SDS011;27689;48.390;10.856;2022-07-29T09:14:43;4.50;;;3.40;;
42000;SDS011;27689;48.390;10.856;2022-07-29T09:17:40;5.90;;;3.08;;
42000;SDS011;27689;48.390;10.856;2022-07-29T09:20:24;3.00;;;2.70;;
42000;SDS011;27689;48.390;10.856;2022-07-29T09:23:09;4.15;;;2.88;;
42000;SDS011;27689;48.390;10.856;2022-07-29T09:25:53;3.92;;;3.05;;
42000;SDS011;27689;48.390;10.856;2022-07-29T09:28:41;3.97;;;3.67;;
42000;SDS011;27689;48.390;10.856;2022-07-29T09:31:36;4.30;;;3.22;;
42000;SDS011;27689;48.390;10.856;2022-07-29T09:34:23;3.95;;;3.08;;
42000;SDS011;27689;48.390;10.856;2022-07-29T09:37:07;5.07;;;4.00;;
42000;SDS011;27689;48.390;10.856;2022-07-29T09:39:52;4.93;;;3.97;;
42000;SDS011;27689;48.390;10.856;2022-07-29T09:42:35;4.55;;;3.58;;
42000;SDS011;27689;48.390;10.856;2022-07-29T09:45:30;4.45;;;3.42;;
42000;SDS011;27689;48.390;10.856;2022-07-29T09:48:19;3.60;;;3.22;;
42000;SDS011;27689;48.390;10.856;2022-07-29T09:51:20;4.03;;;3.35;;
42000;SDS011;27689;48.390;10.856;2022-07-29T09:54:23;3.75;;;3.42;;
42000;SDS011;27689;48.390;10.856;2022-07-29T09:57:11;3.53;;;3.22;;
42000;SDS011;27689;48.390;10.856;2022-07-29T10:02:52;3.72;;;3.35;;
42000;SDS011;27689;48.390;10.856;2022-07-29T10:05:45;4.05;;;3.17;;
42000;SDS011;27689;48.390;10.856;2022-07-29T10:08:29;3.78;;;2.80;;
42000;SDS011;27689;48.390;10.856;2022-07-29T10:11:18;3.85;;;2.83;;
42000;SDS011;27689;48.390;10.856;2022-07-29T10:14:03;4.45;;;3.35;;
42000;SDS011;27689;48.390;10.856;2022-07-29T10:16:48;7.47;;;3.35;;
42000;SDS011;27689;48.390;10.856;2022-07-29T10:19:32;4.80;;;3.65;;
42000;SDS011;27689;48.390;10.856;2022-07-29T10:22:18;4.13;;;2.80;;
42000;SDS011;27689;48.390;10.856;2022-07-29T10:25:02;3.35;;;2.90;;
42000;SDS011;27689;48.390;10.856;2022-07-29T10:27:47;4.28;;;3.88;;
42000;SDS011;27689;48.390;10.856;2022-07-29T10:30:32;4.85;;;3.42;;
42000;SDS011;27689;48.390;10.856;2022-07-29T10:36:35;6.40;;;3.88;;
42000;SDS011;27689;48.390;10.856;2022-07-29T10:42:30;5.35;;;4.22;;
42000;SDS011;27689;48.390;10.856;2022-07-29T10:45:15;6.47;;;3.92;;
42000;SDS011;27689;48.390;10.856;2022-07-29T10:48:04;7.25;;;4.57;;
42000;SDS011;27689;48.390;10.856;2022-07-29T10:53:50;6.82;;;4.43;;
42000;SDS011;27689;48.390;10.856;2022-07-29T10:56:36;6.38;;;4.30;;
42000;SDS011;27689;48.390;10.856;2022-07-29T11:02:40;7.07;;;4.90;;
42000;SDS011;27689;48.390;10.856;2022-07-29T11:14:03;7.70;;;4.65;;
42000;SDS011;27689;48.390;10.856;2022-07-29T11:19:47;5.70;;;3.83;;
42000;SDS011;27689;48.390;10.856;2022-07-29T11:22:32;5.68;;;4.22;;
42000;SDS011;27689;48.390;10.856;2022-07-29T11:25:17;4.10;;;3.50;;
42000;SDS011;27689;48.390;10.856;2022-07-29T11:30:54;4.70;;;3.10;;
42000;SDS011;27689;48.390;10.856;2022-07-29T11:33:38;5.97;;;3.13;;
42000;SDS011;27689;48.390;10.856;2022-07-29T11:36:23;5.13;;;2.88;;
42000;SDS011;27689;48.390;10.856;2022-07-29T11:39:27;4.65;;;2.90;;
42000;SDS011;27689;48.390;10.856;2022-07-29T11:45:31;4.53;;;2.50;;
42000;SDS011;27689;48.390;10.856;2022-07-29T11:48:28;3.05;;;2.30;;
42000;SDS011;27689;48.390;10.856;2022-07-29T11:51:12;7.40;;;2.67;;
42000;SDS011;27689;48.390;10.856;2022-07-29T11:53:57;2.72;;;2.53;;
42000;SDS011;27689;48.390;10.856;2022-07-29T11:56:41;3.55;;;2.60;;
42000;SDS011;27689;48.390;10.856;2022-07-29T11:59:29;4.47;;;2.80;;
42000;SDS011;27689;48.390;10.856;2022-07-29T12:02:14;4.65;;;2.50;;
42000;SDS011;27689;48.390;10.856;2022-07-29T12:04:59;3.47;;;2.72;;
42000;SDS011;27689;48.390;10.856;2022-07-29T12:07:43;4.47;;;2.63;;
42000;SDS011;27689;48.390;10.856;2022-07-29T12:10:30;4.63;;;2.40;;
42000;SDS011;27689;48.390;10.856;2022-07-29T12:13:14;3.22;;;2.50;;
42000;SDS011;27689;48.390;10.856;2022-07-29T12:15:59;7.30;;;2.85;;
42000;SDS011;27689;48.390;10.856;2022-07-29T12:18:54;4.88;;;2.50;;
42000;SDS011;27689;48.390;10.856;2022-07-29T12:24:43;3.33;;;2.53;;
42000;SDS011;27689;48.390;10.856;2022-07-29T12:27:28;6.13;;;2.50;;
42000;SDS011;27689;48.390;10.856;2022-07-29T12:30:13;2.90;;;2.50;;
42000;SDS011;27689;48.390;10.856;2022-07-29T12:32:59;5.00;;;2.63;;
42000;SDS011;27689;48.390;10.856;2022-07-29T12:35:45;5.55;;;2.60;;
42000;SDS011;27689;48.390;10.856;2022-07-29T12:38:32;3.03;;;2.25;;
42000;SDS011;27689;48.390;10.856;2022-07-29T12:41:18;4.30;;;2.50;;
42000;SDS011;27689;48.390;10.856;2022-07-29T12:44:02;4.15;;;2.70;;
42000;SDS011;27689;48.390;10.856;2022-07-29T12:47:00;3.13;;;2.37;;
42000;SDS011;27689;48.390;10.856;2022-07-29T12:49:45;3.42;;;2.50;;
42000;SDS011;27689;48.390;10.856;2022-07-29T12:52:32;2.58;;;2.38;;
42000;SDS011;27689;48.390;10.856;2022-07-29T12:58:39;5.00;;;2.60;;
42000;SDS011;27689;48.390;10.856;2022-07-29T13:01:24;5.15;;;2.72;;
42000;SDS011;27689;48.390;10.856;2022-07-29T13:04:10;3.85;;;2.50;;
42000;SDS011;27689;48.390;10.856;2022-07-29T13:07:04;3.60;;;2.90;;
42000;SDS011;27689;48.390;10.856;2022-07-29T13:09:50;3.33;;;2.40;;
42000;SDS011;27689;48.390;10.856;2022-07-29T13:12:35;3.72;;;2.13;;
42000;SDS011;27689;48.390;10.856;2022-07-29T13:15:19;4.28;;;2.35;;
42000;SDS011;27689;48.390;10.856;2022-07-29T13:18:03;4.47;;;2.20;;
42000;SDS011;27689;48.390;10.856;2022-07-29T13:20:49;3.70;;;1.95;;
42000;SDS011;27689;48.390;10.856;2022-07-29T13:23:33;4.37;;;2.30;;
42000;SDS011;27689;48.390;10.856;2022-07-29T13:26:17;4.40;;;2.10;;
42000;SDS011;27689;48.390;10.856;2022-07-29T13:29:03;3.70;;;1.88;;
42000;SDS011;27689;48.390;10.856;2022-07-29T13:31:47;5.10;;;2.10;;
42000;SDS011;27689;48.390;10.856;2022-07-29T13:34:31;3.50;;;2.20;;
42000;SDS011;27689;48.390;10.856;2022-07-29T13:37:15;4.03;;;1.88;;
42000;SDS011;27689;48.390;10.856;2022-07-29T13:42:46;2.95;;;2.28;;
42000;SDS011;27689;48.390;10.856;2022-07-29T13:45:30;3.85;;;2.42;;
42000;SDS011;27689;48.390;10.856;2022-07-29T13:48:14;3.53;;;2.30;;
42000;SDS011;27689;48.390;10.856;2022-07-29T13:50:58;3.53;;;2.00;;
42000;SDS011;27689;48.390;10.856;2022-07-29T13:53:42;5.10;;;2.40;;
42000;SDS011;27689;48.390;10.856;2022-07-29T13:56:26;3.80;;;2.55;;
42000;SDS011;27689;48.390;10.856;2022-07-29T13:59:10;4.00;;;2.50;;
42000;SDS011;27689;48.390;10.856;2022-07-29T14:01:54;3.33;;;1.93;;
42000;SDS011;27689;48.390;10.856;2022-07-29T14:04:39;4.10;;;2.22;;
42000;SDS011;27689;48.390;10.856;2022-07-29T14:07:23;2.80;;;1.88;;
42000;SDS011;27689;48.390;10.856;2022-07-29T14:10:07;2.80;;;1.70;;
42000;SDS011;27689;48.390;10.856;2022-07-29T14:12:51;2.97;;;2.05;;
42000;SDS011;27689;48.390;10.856;2022-07-29T14:15:35;3.07;;;2.00;;
42000;SDS011;27689;48.390;10.856;2022-07-29T14:18:19;2.60;;;1.88;;
42000;SDS011;27689;48.390;10.856;2022-07-29T14:21:04;3.33;;;1.93;;
42000;SDS011;27689;48.390;10.856;2022-07-29T14:23:47;2.63;;;2.08;;
42000;SDS011;27689;48.390;10.856;2022-07-29T14:26:32;5.30;;;1.95;;
42000;SDS011;27689;48.390;10.856;2022-07-29T14:29:16;2.72;;;1.85;;
42000;SDS011;27689;48.390;10.856;2022-07-29T14:32:00;3.30;;;2.13;;
42000;SDS011;27689;48.390;10.856;2022-07-29T14:34:44;3.22;;;2.15;;
42000;SDS011;27689;48.390;10.856;2022-07-29T14:37:28;3.43;;;2.07;;
42000;SDS011;27689;48.390;10.856;2022-07-29T14:40:12;4.75;;;2.40;;
42000;SDS011;27689;48.390;10.856;2022-07-29T14:42:59;4.20;;;2.40;;
42000;SDS011;27689;48.390;10.856;2022-07-29T14:45:43;5.28;;;2.30;;
42000;SDS011;27689;48.390;10.856;2022-07-29T14:48:27;5.05;;;2.40;;
42000;SDS011;27689;48.390;10.856;2022-07-29T14:51:11;3.45;;;2.22;;
42000;SDS011;27689;48.390;10.856;2022-07-29T14:53:55;2.13;;;1.70;;
42000;SDS011;27689;48.390;10.856;2022-07-29T14:56:39;2.97;;;2.30;;
42000;SDS011;27689;48.390;10.856;2022-07-29T14:59:24;2.87;;;2.40;;
42000;SDS011;27689;48.390;10.856;2022-07-29T15:04:52;5.00;;;2.50;;
42000;SDS011;27689;48.390;10.856;2022-07-29T15:07:36;3.38;;;2.50;;
42000;SDS011;27689;48.390;10.856;2022-07-29T15:10:21;5.95;;;2.70;;
42000;SDS011;27689;48.390;10.856;2022-07-29T15:13:05;3.35;;;2.35;;
42000;SDS011;27689;48.390;10.856;2022-07-29T15:15:48;4.90;;;2.60;;
42000;SDS011;27689;48.390;10.856;2022-07-29T15:18:33;2.83;;;2.35;;
42000;SDS011;27689;48.390;10.856;2022-07-29T15:21:17;3.65;;;2.63;;
42000;SDS011;27689;48.390;10.856;2022-07-29T15:24:01;4.87;;;2.97;;
42000;SDS011;27689;48.390;10.856;2022-07-29T15:26:46;5.65;;;2.80;;
42000;SDS011;27689;48.390;10.856;2022-07-29T15:29:31;5.03;;;2.88;;
42000;SDS011;27689;48.390;10.856;2022-07-29T15:32:15;5.20;;;2.90;;
42000;SDS011;27689;48.390;10.856;2022-07-29T15:35:00;3.22;;;2.85;;
42000;SDS011;27689;48.390;10.856;2022-07-29T15:37:44;6.33;;;3.17;;
42000;SDS011;27689;48.390;10.856;2022-07-29T15:40:28;3.00;;;2.37;;
42000;SDS011;27689;48.390;10.856;2022-07-29T15:43:12;3.75;;;2.55;;
42000;SDS011;27689;48.390;10.856;2022-07-29T15:45:56;2.50;;;2.30;;
42000;SDS011;27689;48.390;10.856;2022-07-29T15:48:59;5.07;;;2.42;;
42000;SDS011;27689;48.390;10.856;2022-07-29T15:51:43;5.60;;;2.47;;
42000;SDS011;27689;48.390;10.856;2022-07-29T15:54:28;3.90;;;2.60;;
42000;SDS011;27689;48.390;10.856;2022-07-29T15:59:56;5.63;;;2.92;;
42000;SDS011;27689;48.390;10.856;2022-07-29T16:02:40;4.77;;;2.20;;
42000;SDS011;27689;48.390;10.856;2022-07-29T16:05:24;3.45;;;2.20;;
42000;SDS011;27689;48.390;10.856;2022-07-29T16:08:08;2.05;;;1.83;;
42000;SDS011;27689;48.390;10.856;2022-07-29T16:10:52;4.95;;;2.50;;
42000;SDS011;27689;48.390;10.856;2022-07-29T16:13:36;3.95;;;2.30;;
42000;SDS011;27689;48.390;10.856;2022-07-29T16:16:20;3.33;;;2.10;;
42000;SDS011;27689;48.390;10.856;2022-07-29T16:19:04;3.08;;;2.40;;
42000;SDS011;27689;48.390;10.856;2022-07-29T16:21:48;3.83;;;2.30;;
42000;SDS011;27689;48.390;10.856;2022-07-29T16:24:32;3.55;;;2.10;;
42000;SDS011;27689;48.390;10.856;2022-07-29T16:27:16;4.05;;;1.90;;
42000;SDS011;27689;48.390;10.856;2022-07-29T16:30:00;2.73;;;1.70;;
42000;SDS011;27689;48.390;10.856;2022-07-29T16:32:44;2.53;;;1.83;;
42000;SDS011;27689;48.390;10.856;2022-07-29T16:35:28;4.82;;;2.15;;
42000;SDS011;27689;48.390;10.856;2022-07-29T16:38:15;6.65;;;2.75;;
42000;SDS011;27689;48.390;10.856;2022-07-29T16:40:59;4.22;;;2.83;;
42000;SDS011;27689;48.390;10.856;2022-07-29T16:43:43;4.28;;;2.42;;
42000;SDS011;27689;48.390;10.856;2022-07-29T16:46:27;5.80;;;2.80;;
42000;SDS011;27689;48.390;10.856;2022-07-29T16:49:11;5.10;;;2.88;;
42000;SDS011;27689;48.390;10.856;2022-07-29T16:51:55;3.90;;;2.60;;
42000;SDS011;27689;48.390;10.856;2022-07-29T16:54:39;5.88;;;2.40;;
42000;SDS011;27689;48.390;10.856;2022-07-29T16:57:23;3.13;;;2.30;;
42000;SDS011;27689;48.390;10.856;2022-07-29T17:00:08;4.27;;;2.70;;
42000;SDS011;27689;48.390;10.856;2022-07-29T17:02:52;3.65;;;2.70;;
42000;SDS011;27689;48.390;10.856;2022-07-29T17:05:36;5.18;;;2.53;;
42000;SDS011;27689;48.390;10.856;2022-07-29T17:08:21;5.53;;;2.45;;
42000;SDS011;27689;48.390;10.856;2022-07-29T17:11:05;2.92;;;2.13;;
42000;SDS011;27689;48.390;10.856;2022-07-29T17:13:49;5.95;;;2.30;;
42000;SDS011;27689;48.390;10.856;2022-07-29T17:16:33;4.00;;;1.90;;
42000;SDS011;27689;48.390;10.856;2022-07-29T17:19:17;3.03;;;1.92;;
42000;SDS011;27689;48.390;10.856;2022-07-29T17:22:02;5.07;;;1.73;;